KLYH/LYH METAR and TAF weather

Enter ICAO airport designator
Station Type Date Time Source
KLYH METAR 2020/04/04 19:54 UTC NOAA

KLYH 041954Z VRB05KT 10SM CLR 21/01 A2993 RMK AO2 SLP131 T02110011 $


Station Type Date Time Source
KLYH Decoded METAR 2020/04/04 19:54 UTC NOAA

LYNCHBURG REGIONAL AIRPORT, VA, United States (KLYH) 37-19N 079-12W 295M
Apr 04, 2020 - 03:54 PM EDT / 2020.04.04 1954 UTC
Wind: Variable at 6 MPH (5 KT):0
Visibility: 10 mile(s):0
Sky conditions: clear
Temperature: 70.0 F (21.1 C)
Dew Point: 34.0 F (1.1 C)
Relative Humidity: 26%
Pressure (altimeter): 29.93 in. Hg (1013 hPa)
ob: KLYH 041954Z VRB05KT 10SM CLR 21/01 A2993 RMK AO2 SLP131 T02110011
cycle: 20

Station Type Date Time Source
KLYH TAF 2020/04/04 18:36 UTC NOAA

TAF KLYH 041733Z 0418/0518 02005KT P6SM SKC
FM042100 06006KT P6SM FEW045
FM050300 VRB03KT P6SM SCT200
FM051400 21004KT P6SM BKN180

Example: see airport list